sensor_id;sensor_type;location;lat;lon;timestamp;temperature;humidity
17066;DHT22;23120;52.336;21.182;2023-07-28T00:00:52;14.50;95.70
17066;DHT22;23120;52.336;21.182;2023-07-28T00:03:18;14.50;96.10
17066;DHT22;23120;52.336;21.182;2023-07-28T00:05:46;14.50;96.30
17066;DHT22;23120;52.336;21.182;2023-07-28T00:08:13;14.50;96.40
17066;DHT22;23120;52.336;21.182;2023-07-28T00:10:40;14.50;96.40
17066;DHT22;23120;52.336;21.182;2023-07-28T00:13:07;14.50;96.30
17066;DHT22;23120;52.336;21.182;2023-07-28T00:15:35;14.40;96.50
17066;DHT22;23120;52.336;21.182;2023-07-28T00:18:01;14.50;96.70
17066;DHT22;23120;52.336;21.182;2023-07-28T00:20:28;14.40;96.80
17066;DHT22;23120;52.336;21.182;2023-07-28T00:22:56;14.50;96.90
17066;DHT22;23120;52.336;21.182;2023-07-28T00:25:24;14.40;96.80
17066;DHT22;23120;52.336;21.182;2023-07-28T00:27:51;14.40;97.10
17066;DHT22;23120;52.336;21.182;2023-07-28T00:30:18;14.50;96.60
17066;DHT22;23120;52.336;21.182;2023-07-28T00:32:44;14.40;97.10
17066;DHT22;23120;52.336;21.182;2023-07-28T00:35:11;14.40;97.10
17066;DHT22;23120;52.336;21.182;2023-07-28T00:37:38;14.40;97.40
17066;DHT22;23120;52.336;21.182;2023-07-28T00:40:08;14.40;97.70
17066;DHT22;23120;52.336;21.182;2023-07-28T00:42:35;14.40;97.40
17066;DHT22;23120;52.336;21.182;2023-07-28T00:45:02;14.40;97.50
17066;DHT22;23120;52.336;21.182;2023-07-28T00:47:29;14.40;97.60
17066;DHT22;23120;52.336;21.182;2023-07-28T00:49:56;14.40;97.30
17066;DHT22;23120;52.336;21.182;2023-07-28T00:52:23;14.30;97.60
17066;DHT22;23120;52.336;21.182;2023-07-28T00:54:50;14.40;97.50
17066;DHT22;23120;52.336;21.182;2023-07-28T00:57:18;14.30;98.00
17066;DHT22;23120;52.336;21.182;2023-07-28T00:59:45;14.40;97.90
17066;DHT22;23120;52.336;21.182;2023-07-28T01:02:12;14.30;97.90
17066;DHT22;23120;52.336;21.182;2023-07-28T01:04:40;14.40;97.90
17066;DHT22;23120;52.336;21.182;2023-07-28T01:07:10;14.40;98.10
17066;DHT22;23120;52.336;21.182;2023-07-28T01:09:44;14.40;97.90
17066;DHT22;23120;52.336;21.182;2023-07-28T01:12:12;14.40;98.10
17066;DHT22;23120;52.336;21.182;2023-07-28T01:14:40;14.50;98.00
17066;DHT22;23120;52.336;21.182;2023-07-28T01:17:07;14.40;98.00
17066;DHT22;23120;52.336;21.182;2023-07-28T01:19:34;14.40;98.40
17066;DHT22;23120;52.336;21.182;2023-07-28T01:22:15;14.50;98.00
17066;DHT22;23120;52.336;21.182;2023-07-28T01:24:51;14.50;98.20
17066;DHT22;23120;52.336;21.182;2023-07-28T01:27:23;14.50;98.20
17066;DHT22;23120;52.336;21.182;2023-07-28T01:29:50;14.50;98.50
17066;DHT22;23120;52.336;21.182;2023-07-28T01:32:17;14.50;98.50
17066;DHT22;23120;52.336;21.182;2023-07-28T01:34:44;14.40;98.30
17066;DHT22;23120;52.336;21.182;2023-07-28T01:37:11;14.50;98.20
17066;DHT22;23120;52.336;21.182;2023-07-28T01:39:38;14.50;98.40
17066;DHT22;23120;52.336;21.182;2023-07-28T01:42:06;14.50;98.40
17066;DHT22;23120;52.336;21.182;2023-07-28T01:44:34;14.50;98.30
17066;DHT22;23120;52.336;21.182;2023-07-28T01:47:00;14.50;98.10
17066;DHT22;23120;52.336;21.182;2023-07-28T01:49:27;14.50;98.10
17066;DHT22;23120;52.336;21.182;2023-07-28T01:51:54;14.50;98.40
17066;DHT22;23120;52.336;21.182;2023-07-28T01:54:21;14.50;98.40
17066;DHT22;23120;52.336;21.182;2023-07-28T01:56:48;14.50;98.40
17066;DHT22;23120;52.336;21.182;2023-07-28T01:59:14;14.50;98.40
17066;DHT22;23120;52.336;21.182;2023-07-28T02:01:42;14.50;98.50
17066;DHT22;23120;52.336;21.182;2023-07-28T02:04:09;14.50;98.60
17066;DHT22;23120;52.336;21.182;2023-07-28T02:06:36;14.50;98.60
17066;DHT22;23120;52.336;21.182;2023-07-28T02:09:03;14.50;98.60
17066;DHT22;23120;52.336;21.182;2023-07-28T02:11:30;14.40;98.90
17066;DHT22;23120;52.336;21.182;2023-07-28T02:13:57;14.40;98.80
17066;DHT22;23120;52.336;21.182;2023-07-28T02:16:24;14.50;98.60
17066;DHT22;23120;52.336;21.182;2023-07-28T02:18:54;14.50;98.60
17066;DHT22;23120;52.336;21.182;2023-07-28T02:21:21;14.40;98.80
17066;DHT22;23120;52.336;21.182;2023-07-28T02:23:48;14.50;98.90
17066;DHT22;23120;52.336;21.182;2023-07-28T02:26:15;14.50;98.90
17066;DHT22;23120;52.336;21.182;2023-07-28T02:28:42;14.50;98.80
17066;DHT22;23120;52.336;21.182;2023-07-28T02:31:09;14.50;99.00
17066;DHT22;23120;52.336;21.182;2023-07-28T02:33:36;14.50;99.20
17066;DHT22;23120;52.336;21.182;2023-07-28T02:36:04;14.50;98.90
17066;DHT22;23120;52.336;21.182;2023-07-28T02:38:31;14.50;98.90
17066;DHT22;23120;52.336;21.182;2023-07-28T02:40:58;14.50;98.80
17066;DHT22;23120;52.336;21.182;2023-07-28T02:43:25;14.50;99.10
17066;DHT22;23120;52.336;21.182;2023-07-28T02:45:54;14.50;98.80
17066;DHT22;23120;52.336;21.182;2023-07-28T02:48:21;14.50;98.60
17066;DHT22;23120;52.336;21.182;2023-07-28T02:50:50;14.50;99.00
17066;DHT22;23120;52.336;21.182;2023-07-28T02:53:19;14.50;98.90
17066;DHT22;23120;52.336;21.182;2023-07-28T02:55:47;14.50;98.80
17066;DHT22;23120;52.336;21.182;2023-07-28T02:58:14;14.60;99.00
17066;DHT22;23120;52.336;21.182;2023-07-28T03:00:42;14.50;98.90
17066;DHT22;23120;52.336;21.182;2023-07-28T03:03:10;14.50;99.00
17066;DHT22;23120;52.336;21.182;2023-07-28T03:05:38;14.50;98.60
17066;DHT22;23120;52.336;21.182;2023-07-28T03:08:18;14.50;98.80
17066;DHT22;23120;52.336;21.182;2023-07-28T03:10:45;14.60;98.70
17066;DHT22;23120;52.336;21.182;2023-07-28T03:13:12;14.60;98.90
17066;DHT22;23120;52.336;21.182;2023-07-28T03:15:39;14.60;99.00
17066;DHT22;23120;52.336;21.182;2023-07-28T03:18:06;14.60;98.90
17066;DHT22;23120;52.336;21.182;2023-07-28T03:20:33;14.60;98.90
17066;DHT22;23120;52.336;21.182;2023-07-28T03:23:00;14.60;98.70
17066;DHT22;23120;52.336;21.182;2023-07-28T03:25:29;14.60;98.70
17066;DHT22;23120;52.336;21.182;2023-07-28T03:27:55;14.60;98.70
17066;DHT22;23120;52.336;21.182;2023-07-28T03:30:22;14.60;98.90
17066;DHT22;23120;52.336;21.182;2023-07-28T03:32:49;14.60;98.90
17066;DHT22;23120;52.336;21.182;2023-07-28T03:35:16;14.60;99.20
17066;DHT22;23120;52.336;21.182;2023-07-28T03:37:50;14.70;99.50
17066;DHT22;23120;52.336;21.182;2023-07-28T03:40:17;14.70;99.10
17066;DHT22;23120;52.336;21.182;2023-07-28T03:42:50;14.70;99.20
17066;DHT22;23120;52.336;21.182;2023-07-28T03:45:17;14.70;99.40
17066;DHT22;23120;52.336;21.182;2023-07-28T03:47:44;14.70;99.60
17066;DHT22;23120;52.336;21.182;2023-07-28T03:50:10;14.70;99.20
17066;DHT22;23120;52.336;21.182;2023-07-28T03:52:37;14.70;99.10
17066;DHT22;23120;52.336;21.182;2023-07-28T03:55:04;14.70;99.20
17066;DHT22;23120;52.336;21.182;2023-07-28T03:57:31;14.70;99.30
17066;DHT22;23120;52.336;21.182;2023-07-28T04:00:00;14.70;99.50
17066;DHT22;23120;52.336;21.182;2023-07-28T04:02:26;14.70;99.40
17066;DHT22;23120;52.336;21.182;2023-07-28T04:04:53;14.70;99.80
17066;DHT22;23120;52.336;21.182;2023-07-28T04:07:21;14.70;99.70
17066;DHT22;23120;52.336;21.182;2023-07-28T04:09:47;14.70;99.70
17066;DHT22;23120;52.336;21.182;2023-07-28T04:12:14;14.70;99.80
17066;DHT22;23120;52.336;21.182;2023-07-28T04:14:41;14.80;99.70
17066;DHT22;23120;52.336;21.182;2023-07-28T04:17:09;14.80;99.80
17066;DHT22;23120;52.336;21.182;2023-07-28T04:19:37;14.80;99.90
17066;DHT22;23120;52.336;21.182;2023-07-28T04:22:05;14.80;99.70
17066;DHT22;23120;52.336;21.182;2023-07-28T04:24:33;14.80;99.90
17066;DHT22;23120;52.336;21.182;2023-07-28T04:27:00;14.90;99.70
17066;DHT22;23120;52.336;21.182;2023-07-28T04:29:28;15.00;99.90
17066;DHT22;23120;52.336;21.182;2023-07-28T04:31:55;14.90;99.70
17066;DHT22;23120;52.336;21.182;2023-07-28T04:34:29;15.00;99.80
17066;DHT22;23120;52.336;21.182;2023-07-28T04:37:06;15.00;99.80
17066;DHT22;23120;52.336;21.182;2023-07-28T04:39:50;15.10;99.70
17066;DHT22;23120;52.336;21.182;2023-07-28T04:42:17;15.10;99.50
17066;DHT22;23120;52.336;21.182;2023-07-28T04:44:46;15.20;99.60
17066;DHT22;23120;52.336;21.182;2023-07-28T04:47:13;15.20;99.80
17066;DHT22;23120;52.336;21.182;2023-07-28T04:49:42;15.30;99.60
17066;DHT22;23120;52.336;21.182;2023-07-28T04:52:29;15.30;99.50
17066;DHT22;23120;52.336;21.182;2023-07-28T04:55:09;15.40;99.50
17066;DHT22;23120;52.336;21.182;2023-07-28T04:57:36;15.50;99.60
17066;DHT22;23120;52.336;21.182;2023-07-28T05:00:03;15.50;99.60
17066;DHT22;23120;52.336;21.182;2023-07-28T05:02:31;15.60;99.50
17066;DHT22;23120;52.336;21.182;2023-07-28T05:04:59;15.60;99.30
17066;DHT22;23120;52.336;21.182;2023-07-28T05:07:26;15.60;99.10
17066;DHT22;23120;52.336;21.182;2023-07-28T05:09:54;15.70;99.30
17066;DHT22;23120;52.336;21.182;2023-07-28T05:12:53;15.80;99.10
17066;DHT22;23120;52.336;21.182;2023-07-28T05:16:31;15.80;99.00
17066;DHT22;23120;52.336;21.182;2023-07-28T05:20:28;15.90;99.00
17066;DHT22;23120;52.336;21.182;2023-07-28T05:23:47;15.90;98.90
17066;DHT22;23120;52.336;21.182;2023-07-28T05:26:14;16.00;99.10
17066;DHT22;23120;52.336;21.182;2023-07-28T05:28:41;16.00;99.10
17066;DHT22;23120;52.336;21.182;2023-07-28T05:31:08;16.00;98.90
17066;DHT22;23120;52.336;21.182;2023-07-28T05:33:35;16.10;98.80
17066;DHT22;23120;52.336;21.182;2023-07-28T05:36:08;16.10;98.70
17066;DHT22;23120;52.336;21.182;2023-07-28T05:38:36;16.20;98.60
17066;DHT22;23120;52.336;21.182;2023-07-28T05:45:09;16.30;98.70
17066;DHT22;23120;52.336;21.182;2023-07-28T05:47:36;16.40;98.20
17066;DHT22;23120;52.336;21.182;2023-07-28T05:50:04;16.50;98.50
17066;DHT22;23120;52.336;21.182;2023-07-28T05:56:05;16.60;98.10
17066;DHT22;23120;52.336;21.182;2023-07-28T05:58:33;16.70;98.00
17066;DHT22;23120;52.336;21.182;2023-07-28T06:01:00;16.70;97.70
17066;DHT22;23120;52.336;21.182;2023-07-28T06:03:47;16.80;97.80
17066;DHT22;23120;52.336;21.182;2023-07-28T06:06:24;16.80;97.80
17066;DHT22;23120;52.336;21.182;2023-07-28T06:09:09;16.80;97.40
17066;DHT22;23120;52.336;21.182;2023-07-28T06:11:45;16.90;97.50
17066;DHT22;23120;52.336;21.182;2023-07-28T06:14:12;16.90;97.40
17066;DHT22;23120;52.336;21.182;2023-07-28T06:16:39;17.00;97.50
17066;DHT22;23120;52.336;21.182;2023-07-28T06:19:06;17.00;97.50
17066;DHT22;23120;52.336;21.182;2023-07-28T06:21:52;17.10;97.30
17066;DHT22;23120;52.336;21.182;2023-07-28T06:25:03;17.20;97.30
17066;DHT22;23120;52.336;21.182;2023-07-28T06:28:40;17.20;97.40
17066;DHT22;23120;52.336;21.182;2023-07-28T06:31:07;17.30;97.20
17066;DHT22;23120;52.336;21.182;2023-07-28T06:33:36;17.30;97.30
17066;DHT22;23120;52.336;21.182;2023-07-28T06:36:04;17.40;97.10
17066;DHT22;23120;52.336;21.182;2023-07-28T06:38:31;17.40;97.00
17066;DHT22;23120;52.336;21.182;2023-07-28T06:40:58;17.50;96.90
17066;DHT22;23120;52.336;21.182;2023-07-28T06:43:25;17.50;96.70
17066;DHT22;23120;52.336;21.182;2023-07-28T06:45:55;17.60;96.80
17066;DHT22;23120;52.336;21.182;2023-07-28T06:48:22;17.60;96.60
17066;DHT22;23120;52.336;21.182;2023-07-28T06:50:49;17.70;96.70
17066;DHT22;23120;52.336;21.182;2023-07-28T06:53:16;17.70;96.70
17066;DHT22;23120;52.336;21.182;2023-07-28T06:55:54;17.80;96.60
17066;DHT22;23120;52.336;21.182;2023-07-28T06:58:24;17.80;96.50
17066;DHT22;23120;52.336;21.182;2023-07-28T07:00:52;17.80;96.50
17066;DHT22;23120;52.336;21.182;2023-07-28T07:03:24;17.90;96.50
17066;DHT22;23120;52.336;21.182;2023-07-28T07:05:53;17.90;96.40
17066;DHT22;23120;52.336;21.182;2023-07-28T07:08:20;18.00;96.40
17066;DHT22;23120;52.336;21.182;2023-07-28T07:10:47;18.00;96.40
17066;DHT22;23120;52.336;21.182;2023-07-28T07:13:16;18.10;96.40
17066;DHT22;23120;52.336;21.182;2023-07-28T07:15:43;18.20;96.50
17066;DHT22;23120;52.336;21.182;2023-07-28T07:18:09;18.30;96.40
17066;DHT22;23120;52.336;21.182;2023-07-28T07:20:38;18.30;96.10
17066;DHT22;23120;52.336;21.182;2023-07-28T07:23:05;18.30;96.20
17066;DHT22;23120;52.336;21.182;2023-07-28T07:25:32;18.40;96.00
17066;DHT22;23120;52.336;21.182;2023-07-28T07:28:02;18.40;96.00
17066;DHT22;23120;52.336;21.182;2023-07-28T07:30:31;18.60;96.00
17066;DHT22;23120;52.336;21.182;2023-07-28T07:32:58;18.60;96.00
17066;DHT22;23120;52.336;21.182;2023-07-28T07:35:25;18.60;96.50
17066;DHT22;23120;52.336;21.182;2023-07-28T07:37:53;18.70;96.30
17066;DHT22;23120;52.336;21.182;2023-07-28T07:40:20;18.70;96.50
17066;DHT22;23120;52.336;21.182;2023-07-28T07:42:48;18.70;96.90
17066;DHT22;23120;52.336;21.182;2023-07-28T07:45:15;18.60;97.50
17066;DHT22;23120;52.336;21.182;2023-07-28T07:47:43;18.60;97.90
17066;DHT22;23120;52.336;21.182;2023-07-28T07:50:10;18.50;98.20
17066;DHT22;23120;52.336;21.182;2023-07-28T07:52:38;18.40;98.60
17066;DHT22;23120;52.336;21.182;2023-07-28T07:55:08;18.40;98.90
17066;DHT22;23120;52.336;21.182;2023-07-28T07:57:35;18.40;99.20
17066;DHT22;23120;52.336;21.182;2023-07-28T08:00:02;18.40;99.40
17066;DHT22;23120;52.336;21.182;2023-07-28T08:02:38;18.40;99.50
17066;DHT22;23120;52.336;21.182;2023-07-28T08:05:06;18.40;99.90
17066;DHT22;23120;52.336;21.182;2023-07-28T08:07:33;18.30;99.90
17066;DHT22;23120;52.336;21.182;2023-07-28T08:10:00;18.30;99.90
17066;DHT22;23120;52.336;21.182;2023-07-28T08:12:28;18.40;99.90
17066;DHT22;23120;52.336;21.182;2023-07-28T08:14:55;18.40;99.90
17066;DHT22;23120;52.336;21.182;2023-07-28T08:17:22;18.40;99.90
17066;DHT22;23120;52.336;21.182;2023-07-28T08:19:48;18.40;99.90
17066;DHT22;23120;52.336;21.182;2023-07-28T08:22:15;18.30;99.90
17066;DHT22;23120;52.336;21.182;2023-07-28T08:24:42;18.40;99.90
17066;DHT22;23120;52.336;21.182;2023-07-28T08:27:09;18.40;99.90
17066;DHT22;23120;52.336;21.182;2023-07-28T08:29:38;18.30;99.90
17066;DHT22;23120;52.336;21.182;2023-07-28T08:32:05;18.30;99.90
17066;DHT22;23120;52.336;21.182;2023-07-28T08:34:35;18.20;99.90
17066;DHT22;23120;52.336;21.182;2023-07-28T08:37:02;18.20;99.90
17066;DHT22;23120;52.336;21.182;2023-07-28T08:39:29;18.20;99.90
17066;DHT22;23120;52.336;21.182;2023-07-28T08:42:00;18.10;99.90
17066;DHT22;23120;52.336;21.182;2023-07-28T08:44:30;18.10;99.90
17066;DHT22;23120;52.336;21.182;2023-07-28T08:46:59;18.10;99.90
17066;DHT22;23120;52.336;21.182;2023-07-28T08:49:26;18.10;99.90
17066;DHT22;23120;52.336;21.182;2023-07-28T08:51:57;18.20;99.90
17066;DHT22;23120;52.336;21.182;2023-07-28T08:54:24;18.30;99.90
17066;DHT22;23120;52.336;21.182;2023-07-28T08:56:53;18.30;99.90
17066;DHT22;23120;52.336;21.182;2023-07-28T08:59:23;18.30;99.90
17066;DHT22;23120;52.336;21.182;2023-07-28T09:01:52;18.40;99.90
17066;DHT22;23120;52.336;21.182;2023-07-28T09:04:24;18.40;99.90
17066;DHT22;23120;52.336;21.182;2023-07-28T09:06:54;18.40;99.90
17066;DHT22;23120;52.336;21.182;2023-07-28T09:09:22;18.50;99.90
17066;DHT22;23120;52.336;21.182;2023-07-28T09:11:50;18.50;99.90
17066;DHT22;23120;52.336;21.182;2023-07-28T09:14:18;18.50;99.90
17066;DHT22;23120;52.336;21.182;2023-07-28T09:16:46;18.50;99.90
17066;DHT22;23120;52.336;21.182;2023-07-28T09:19:13;18.50;99.90
17066;DHT22;23120;52.336;21.182;2023-07-28T09:21:43;18.50;99.90
17066;DHT22;23120;52.336;21.182;2023-07-28T09:24:30;18.50;99.90
17066;DHT22;23120;52.336;21.182;2023-07-28T09:27:20;18.50;99.90
17066;DHT22;23120;52.336;21.182;2023-07-28T09:29:48;18.40;99.90
17066;DHT22;23120;52.336;21.182;2023-07-28T09:32:16;18.40;99.90
17066;DHT22;23120;52.336;21.182;2023-07-28T09:50:09;18.40;99.90
17066;DHT22;23120;52.336;21.182;2023-07-28T10:03:50;18.70;99.90
17066;DHT22;23120;52.336;21.182;2023-07-28T10:06:20;18.70;99.90
17066;DHT22;23120;52.336;21.182;2023-07-28T10:08:48;18.80;99.90
17066;DHT22;23120;52.336;21.182;2023-07-28T10:11:18;18.90;99.90
17066;DHT22;23120;52.336;21.182;2023-07-28T10:13:46;18.80;99.90
17066;DHT22;23120;52.336;21.182;2023-07-28T10:16:13;18.90;99.90
17066;DHT22;23120;52.336;21.182;2023-07-28T10:18:40;19.00;99.90
17066;DHT22;23120;52.336;21.182;2023-07-28T10:21:09;19.10;99.90
17066;DHT22;23120;52.336;21.182;2023-07-28T10:23:40;19.10;99.90
17066;DHT22;23120;52.336;21.182;2023-07-28T10:26:06;19.10;99.90
17066;DHT22;23120;52.336;21.182;2023-07-28T10:28:35;19.10;99.90
17066;DHT22;23120;52.336;21.182;2023-07-28T10:31:05;19.20;99.90
17066;DHT22;23120;52.336;21.182;2023-07-28T10:36:56;19.20;99.90
17066;DHT22;23120;52.336;21.182;2023-07-28T10:39:25;19.20;99.90
17066;DHT22;23120;52.336;21.182;2023-07-28T10:42:01;19.30;99.90
17066;DHT22;23120;52.336;21.182;2023-07-28T10:44:29;19.30;99.90
17066;DHT22;23120;52.336;21.182;2023-07-28T10:46:57;19.30;99.90
17066;DHT22;23120;52.336;21.182;2023-07-28T10:49:29;19.30;99.90
17066;DHT22;23120;52.336;21.182;2023-07-28T10:51:56;19.30;99.90
17066;DHT22;23120;52.336;21.182;2023-07-28T10:54:24;19.30;99.90
17066;DHT22;23120;52.336;21.182;2023-07-28T10:56:52;19.40;99.90
17066;DHT22;23120;52.336;21.182;2023-07-28T10:59:21;19.50;99.90
17066;DHT22;23120;52.336;21.182;2023-07-28T11:02:09;19.40;99.90
17066;DHT22;23120;52.336;21.182;2023-07-28T11:04:46;19.40;99.90
17066;DHT22;23120;52.336;21.182;2023-07-28T11:15:26;19.50;99.90
17066;DHT22;23120;52.336;21.182;2023-07-28T11:18:15;19.50;99.90
17066;DHT22;23120;52.336;21.182;2023-07-28T11:20:42;19.60;99.90
17066;DHT22;23120;52.336;21.182;2023-07-28T11:23:14;19.50;99.90
17066;DHT22;23120;52.336;21.182;2023-07-28T11:25:45;19.60;99.90
17066;DHT22;23120;52.336;21.182;2023-07-28T11:28:13;19.60;99.90
17066;DHT22;23120;52.336;21.182;2023-07-28T11:30:41;19.70;99.90
17066;DHT22;23120;52.336;21.182;2023-07-28T11:33:10;19.80;99.90
17066;DHT22;23120;52.336;21.182;2023-07-28T11:35:38;19.80;99.90
17066;DHT22;23120;52.336;21.182;2023-07-28T11:38:05;19.90;99.90
17066;DHT22;23120;52.336;21.182;2023-07-28T11:40:33;19.80;99.90
17066;DHT22;23120;52.336;21.182;2023-07-28T11:43:01;19.90;99.90
17066;DHT22;23120;52.336;21.182;2023-07-28T11:45:34;19.90;99.90
17066;DHT22;23120;52.336;21.182;2023-07-28T11:57:01;19.90;99.90
17066;DHT22;23120;52.336;21.182;2023-07-28T12:03:17;20.10;99.90
17066;DHT22;23120;52.336;21.182;2023-07-28T12:06:05;20.20;99.90
17066;DHT22;23120;52.336;21.182;2023-07-28T12:08:36;20.30;99.90
17066;DHT22;23120;52.336;21.182;2023-07-28T12:11:03;20.50;99.90
17066;DHT22;23120;52.336;21.182;2023-07-28T12:13:33;20.70;99.90
17066;DHT22;23120;52.336;21.182;2023-07-28T12:16:37;20.80;99.90
17066;DHT22;23120;52.336;21.182;2023-07-28T12:19:05;21.00;99.90
17066;DHT22;23120;52.336;21.182;2023-07-28T12:25:43;21.30;99.90
17066;DHT22;23120;52.336;21.182;2023-07-28T12:28:29;21.60;99.90
17066;DHT22;23120;52.336;21.182;2023-07-28T12:30:57;21.80;99.90
17066;DHT22;23120;52.336;21.182;2023-07-28T12:33:24;21.90;99.90
17066;DHT22;23120;52.336;21.182;2023-07-28T12:35:51;22.00;99.90
17066;DHT22;23120;52.336;21.182;2023-07-28T12:38:18;22.00;99.90
17066;DHT22;23120;52.336;21.182;2023-07-28T12:40:45;22.20;99.90
17066;DHT22;23120;52.336;21.182;2023-07-28T12:43:12;22.30;99.90
17066;DHT22;23120;52.336;21.182;2023-07-28T12:45:41;22.30;99.40
17066;DHT22;23120;52.336;21.182;2023-07-28T12:48:09;22.30;99.70
17066;DHT22;23120;52.336;21.182;2023-07-28T13:07:17;22.30;98.20
17066;DHT22;23120;52.336;21.182;2023-07-28T13:09:56;22.20;97.90
17066;DHT22;23120;52.336;21.182;2023-07-28T13:13:11;22.00;97.50
17066;DHT22;23120;52.336;21.182;2023-07-28T13:23:21;21.90;97.50
17066;DHT22;23120;52.336;21.182;2023-07-28T13:25:48;21.80;97.40
17066;DHT22;23120;52.336;21.182;2023-07-28T13:28:15;21.70;97.40
17066;DHT22;23120;52.336;21.182;2023-07-28T13:30:45;21.60;97.40
17066;DHT22;23120;52.336;21.182;2023-07-28T13:33:12;21.60;97.80
17066;DHT22;23120;52.336;21.182;2023-07-28T13:35:39;21.60;98.00
17066;DHT22;23120;52.336;21.182;2023-07-28T13:45:39;21.60;98.30
17066;DHT22;23120;52.336;21.182;2023-07-28T13:48:06;21.50;98.20
17066;DHT22;23120;52.336;21.182;2023-07-28T15:14:24;21.20;99.80
17066;DHT22;23120;52.336;21.182;2023-07-28T15:16:51;21.10;99.90
17066;DHT22;23120;52.336;21.182;2023-07-28T15:19:21;21.00;99.90
17066;DHT22;23120;52.336;21.182;2023-07-28T15:21:48;21.00;99.90
17066;DHT22;23120;52.336;21.182;2023-07-28T15:24:15;20.90;99.90
17066;DHT22;23120;52.336;21.182;2023-07-28T15:26:44;20.90;99.90
17066;DHT22;23120;52.336;21.182;2023-07-28T15:29:13;20.80;99.90
17066;DHT22;23120;52.336;21.182;2023-07-28T15:31:56;20.80;99.90
17066;DHT22;23120;52.336;21.182;2023-07-28T15:34:49;20.70;99.90
17066;DHT22;23120;52.336;21.182;2023-07-28T15:37:16;20.60;99.90
17066;DHT22;23120;52.336;21.182;2023-07-28T15:39:43;20.50;99.90
17066;DHT22;23120;52.336;21.182;2023-07-28T15:42:10;20.50;99.90
17066;DHT22;23120;52.336;21.182;2023-07-28T15:44:37;20.40;99.90
17066;DHT22;23120;52.336;21.182;2023-07-28T15:47:06;20.30;99.90
17066;DHT22;23120;52.336;21.182;2023-07-28T15:49:33;20.30;99.90
17066;DHT22;23120;52.336;21.182;2023-07-28T15:52:01;20.40;99.90
17066;DHT22;23120;52.336;21.182;2023-07-28T15:54:28;20.40;99.90
17066;DHT22;23120;52.336;21.182;2023-07-28T15:56:55;20.40;99.90
17066;DHT22;23120;52.336;21.182;2023-07-28T15:59:22;20.40;99.90
17066;DHT22;23120;52.336;21.182;2023-07-28T16:01:49;20.30;99.90
17066;DHT22;23120;52.336;21.182;2023-07-28T16:04:17;20.30;99.90
17066;DHT22;23120;52.336;21.182;2023-07-28T16:06:44;20.40;99.90
17066;DHT22;23120;52.336;21.182;2023-07-28T16:09:12;20.30;99.90
17066;DHT22;23120;52.336;21.182;2023-07-28T16:11:40;20.30;99.90
17066;DHT22;23120;52.336;21.182;2023-07-28T16:14:06;20.30;99.90
17066;DHT22;23120;52.336;21.182;2023-07-28T16:16:33;20.30;99.90
17066;DHT22;23120;52.336;21.182;2023-07-28T16:19:00;20.30;99.90
17066;DHT22;23120;52.336;21.182;2023-07-28T16:21:31;20.30;99.90
17066;DHT22;23120;52.336;21.182;2023-07-28T16:23:59;20.40;99.90
17066;DHT22;23120;52.336;21.182;2023-07-28T16:26:38;20.40;99.90
17066;DHT22;23120;52.336;21.182;2023-07-28T16:29:08;20.50;99.90
17066;DHT22;23120;52.336;21.182;2023-07-28T16:31:48;20.60;99.90
17066;DHT22;23120;52.336;21.182;2023-07-28T16:34:15;20.70;99.90
17066;DHT22;23120;52.336;21.182;2023-07-28T16:36:44;20.70;99.90
17066;DHT22;23120;52.336;21.182;2023-07-28T16:39:11;20.80;99.90
17066;DHT22;23120;52.336;21.182;2023-07-28T16:41:38;21.00;99.90
17066;DHT22;23120;52.336;21.182;2023-07-28T16:44:05;21.00;99.90
17066;DHT22;23120;52.336;21.182;2023-07-28T16:46:31;21.10;99.90
17066;DHT22;23120;52.336;21.182;2023-07-28T16:48:58;21.10;99.90
17066;DHT22;23120;52.336;21.182;2023-07-28T16:51:25;21.20;99.90
17066;DHT22;23120;52.336;21.182;2023-07-28T16:53:54;21.10;99.90
17066;DHT22;23120;52.336;21.182;2023-07-28T16:56:21;21.20;99.90
17066;DHT22;23120;52.336;21.182;2023-07-28T16:58:47;21.20;99.90
17066;DHT22;23120;52.336;21.182;2023-07-28T17:01:14;21.30;99.90
17066;DHT22;23120;52.336;21.182;2023-07-28T17:03:41;21.50;99.90
17066;DHT22;23120;52.336;21.182;2023-07-28T17:06:14;21.70;99.90
17066;DHT22;23120;52.336;21.182;2023-07-28T17:08:40;21.80;99.90
17066;DHT22;23120;52.336;21.182;2023-07-28T17:11:09;22.00;99.90
17066;DHT22;23120;52.336;21.182;2023-07-28T17:13:35;22.20;99.90
17066;DHT22;23120;52.336;21.182;2023-07-28T17:16:02;22.30;99.90
17066;DHT22;23120;52.336;21.182;2023-07-28T17:18:29;22.30;99.90
17066;DHT22;23120;52.336;21.182;2023-07-28T17:20:56;22.40;99.90
17066;DHT22;23120;52.336;21.182;2023-07-28T17:23:23;22.50;99.90
17066;DHT22;23120;52.336;21.182;2023-07-28T17:25:51;22.40;99.90
17066;DHT22;23120;52.336;21.182;2023-07-28T17:28:19;22.40;99.90
17066;DHT22;23120;52.336;21.182;2023-07-28T17:30:46;22.30;99.90
17066;DHT22;23120;52.336;21.182;2023-07-28T17:33:14;22.30;99.90
17066;DHT22;23120;52.336;21.182;2023-07-28T17:35:43;22.00;99.90
17066;DHT22;23120;52.336;21.182;2023-07-28T17:38:09;22.00;99.90
17066;DHT22;23120;52.336;21.182;2023-07-28T17:40:36;21.90;99.90
17066;DHT22;23120;52.336;21.182;2023-07-28T17:43:03;21.70;99.90
17066;DHT22;23120;52.336;21.182;2023-07-28T17:45:31;21.60;99.90
17066;DHT22;23120;52.336;21.182;2023-07-28T17:47:59;21.50;99.90
17066;DHT22;23120;52.336;21.182;2023-07-28T17:50:28;21.40;99.90
17066;DHT22;23120;52.336;21.182;2023-07-28T17:53:10;21.30;99.90
17066;DHT22;23120;52.336;21.182;2023-07-28T18:04:29;20.90;99.90
17066;DHT22;23120;52.336;21.182;2023-07-28T18:06:56;20.80;99.90
17066;DHT22;23120;52.336;21.182;2023-07-28T18:09:23;20.60;99.90
17066;DHT22;23120;52.336;21.182;2023-07-28T18:11:50;20.50;99.90
17066;DHT22;23120;52.336;21.182;2023-07-28T18:14:17;20.50;99.90
17066;DHT22;23120;52.336;21.182;2023-07-28T18:16:44;20.40;99.90
17066;DHT22;23120;52.336;21.182;2023-07-28T18:19:11;20.30;99.90
17066;DHT22;23120;52.336;21.182;2023-07-28T18:21:40;20.30;99.90
17066;DHT22;23120;52.336;21.182;2023-07-28T18:24:07;20.20;99.90
17066;DHT22;23120;52.336;21.182;2023-07-28T18:26:34;20.10;99.90
17066;DHT22;23120;52.336;21.182;2023-07-28T18:29:06;20.10;99.90
17066;DHT22;23120;52.336;21.182;2023-07-28T18:31:35;20.00;99.90
17066;DHT22;23120;52.336;21.182;2023-07-28T18:34:02;20.00;99.90
17066;DHT22;23120;52.336;21.182;2023-07-28T18:36:28;19.90;99.90
17066;DHT22;23120;52.336;21.182;2023-07-28T18:38:57;19.90;99.90